createdAt,value
2018-03-02T00:01:54.213Z,7.95
2018-03-02T00:04:22.301Z,6.80
2018-03-02T00:06:50.476Z,7.28
2018-03-02T00:09:19.501Z,7.47
2018-03-02T00:11:47.522Z,7.45
2018-03-02T00:14:16.332Z,7.20
2018-03-02T00:16:44.403Z,7.53
2018-03-02T00:19:12.440Z,7.20
2018-03-02T00:21:40.457Z,7.68
2018-03-02T00:24:10.000Z,7.72
2018-03-02T00:26:38.083Z,8.05
2018-03-02T00:29:06.147Z,6.93
2018-03-02T00:31:34.175Z,7.97
2018-03-02T00:34:02.222Z,8.23
2018-03-02T00:36:30.246Z,6.95
2018-03-02T00:38:58.258Z,7.28
2018-03-02T00:41:26.333Z,7.47
2018-03-02T00:43:54.361Z,7.87
2018-03-02T00:46:22.373Z,7.25
2018-03-02T00:48:50.424Z,8.32
2018-03-02T00:51:18.459Z,7.35
2018-03-02T00:53:46.518Z,7.40
2018-03-02T00:56:15.323Z,7.78
2018-03-02T00:58:43.370Z,7.45
2018-03-02T01:01:11.404Z,7.80
2018-03-02T01:03:39.449Z,7.55
2018-03-02T01:06:09.423Z,7.97
2018-03-02T01:08:37.467Z,7.12
2018-03-02T01:11:05.512Z,7.75
2018-03-02T01:13:33.555Z,8.02
2018-03-02T01:16:02.374Z,8.15
2018-03-02T01:18:30.404Z,7.50
2018-03-02T01:20:58.452Z,7.95
2018-03-02T01:23:26.504Z,7.90
2018-03-02T01:25:54.773Z,7.55
2018-03-02T01:28:22.818Z,7.60
2018-03-02T01:30:50.865Z,7.65
2018-03-02T01:33:19.880Z,8.05
2018-03-02T01:35:47.957Z,7.82
2018-03-02T01:38:16.002Z,7.50
2018-03-02T01:40:44.040Z,7.80
2018-03-02T01:43:12.086Z,8.10
2018-03-02T01:45:40.792Z,7.93
2018-03-02T01:48:08.862Z,7.75
2018-03-02T01:50:37.494Z,8.18
2018-03-02T01:53:05.558Z,7.97
2018-03-02T01:55:33.577Z,7.85
2018-03-02T01:58:01.595Z,8.25
2018-03-02T02:00:29.642Z,8.55
2018-03-02T02:02:57.664Z,7.62
2018-03-02T02:05:26.479Z,8.18
2018-03-02T02:07:54.520Z,8.18
2018-03-02T02:10:22.569Z,7.47
2018-03-02T02:12:50.586Z,8.07
2018-03-02T02:15:18.627Z,8.02
2018-03-02T02:17:47.484Z,8.15
2018-03-02T02:20:15.531Z,7.68
2018-03-02T02:22:43.583Z,8.13
2018-03-02T02:25:11.592Z,8.20
2018-03-02T02:27:39.735Z,8.35
2018-03-02T02:30:07.792Z,8.30
2018-03-02T02:32:35.842Z,8.00
2018-03-02T02:35:03.880Z,7.80
2018-03-02T02:37:31.909Z,8.20
2018-03-02T02:40:00.697Z,8.40
2018-03-02T02:42:30.849Z,8.32
2018-03-02T02:44:58.880Z,8.27
2018-03-02T02:47:26.919Z,8.65
2018-03-02T02:49:54.957Z,8.20
2018-03-02T02:52:22.958Z,8.93
2018-03-02T02:54:51.038Z,8.50
2018-03-02T02:57:19.058Z,7.75
2018-03-02T02:59:47.072Z,8.25
2018-03-02T03:02:15.101Z,8.60
2018-03-02T03:04:43.190Z,8.20
2018-03-02T03:07:11.262Z,8.25
2018-03-02T03:09:39.284Z,8.38
2018-03-02T03:12:07.306Z,8.82
2018-03-02T03:14:35.342Z,8.50
2018-03-02T03:17:03.388Z,8.10
2018-03-02T03:19:31.464Z,8.07
2018-03-02T03:21:59.494Z,9.10
2018-03-02T03:24:27.528Z,9.00
2018-03-02T03:26:56.340Z,8.77
2018-03-02T03:29:25.242Z,8.80
2018-03-02T03:31:53.306Z,8.27
2018-03-02T03:34:21.420Z,8.00
2018-03-02T03:36:49.474Z,9.07
2018-03-02T03:39:17.595Z,8.32
2018-03-02T03:41:46.395Z,8.98
2018-03-02T03:44:14.429Z,8.75
2018-03-02T03:46:42.461Z,7.60
2018-03-02T03:49:10.523Z,9.30
2018-03-02T03:51:38.557Z,9.02
2018-03-02T03:54:06.579Z,9.05
2018-03-02T03:56:34.603Z,8.88
2018-03-02T03:59:02.653Z,9.60
2018-03-02T04:01:30.706Z,8.48
2018-03-02T04:03:58.733Z,8.98
2018-03-02T04:06:27.534Z,8.80
2018-03-02T04:08:55.557Z,8.30
2018-03-02T04:11:23.583Z,8.20
2018-03-02T04:13:51.670Z,8.82
2018-03-02T04:16:19.720Z,8.80
2018-03-02T04:18:47.759Z,8.48
2018-03-02T04:21:15.779Z,9.05
2018-03-02T04:23:44.906Z,8.93
2018-03-02T04:26:12.960Z,8.77
2018-03-02T04:28:41.019Z,9.02
2018-03-02T04:31:09.416Z,8.82
2018-03-02T04:33:37.456Z,8.82
2018-03-02T04:36:05.497Z,9.10
2018-03-02T04:38:33.517Z,7.95
2018-03-02T04:41:01.587Z,9.13
2018-03-02T04:43:29.606Z,8.52
2018-03-02T04:45:57.635Z,8.02
2018-03-02T04:48:25.687Z,7.72
2018-03-02T04:50:53.721Z,8.32
2018-03-02T04:53:21.760Z,8.35
2018-03-02T04:55:49.812Z,14.63
2018-03-02T04:58:17.864Z,11.82
2018-03-02T05:00:45.899Z,10.35
2018-03-02T05:03:13.948Z,10.57
2018-03-02T05:05:41.990Z,10.40
2018-03-02T05:08:10.026Z,9.52
2018-03-02T05:10:38.036Z,9.82
2018-03-02T05:13:06.084Z,9.45
2018-03-02T05:15:34.139Z,9.75
2018-03-02T05:18:02.208Z,9.70
2018-03-02T05:20:30.217Z,9.23
2018-03-02T05:22:58.268Z,9.50
2018-03-02T05:25:27.067Z,9.50
2018-03-02T05:27:55.112Z,8.88
2018-03-02T05:30:23.130Z,9.07
2018-03-02T05:32:51.174Z,9.02
2018-03-02T05:35:20.024Z,8.77
2018-03-02T05:37:49.031Z,8.68
2018-03-02T05:40:17.094Z,9.40
2018-03-02T05:42:45.124Z,8.23
2018-03-02T05:45:13.146Z,8.98
2018-03-02T05:47:41.170Z,9.27
2018-03-02T05:50:09.204Z,9.10
2018-03-02T05:52:37.256Z,8.90
2018-03-02T05:55:05.297Z,8.63
2018-03-02T05:57:33.326Z,8.80
2018-03-02T06:00:01.395Z,8.90
2018-03-02T06:02:29.399Z,8.55
2018-03-02T06:04:57.451Z,8.85
2018-03-02T06:07:25.520Z,8.80
2018-03-02T06:09:53.548Z,8.82
2018-03-02T06:12:21.575Z,8.52
2018-03-02T06:14:49.626Z,8.23
2018-03-02T06:17:17.692Z,8.90
2018-03-02T06:19:45.729Z,8.82
2018-03-02T06:22:13.765Z,8.75
2018-03-02T06:24:41.793Z,9.73
2018-03-02T06:27:09.843Z,8.80
2018-03-02T06:29:37.928Z,9.25
2018-03-02T06:32:05.954Z,9.80
2018-03-02T06:34:33.986Z,10.90
2018-03-02T06:37:02.055Z,11.38
2018-03-02T06:39:30.060Z,11.40
2018-03-02T06:41:58.353Z,10.45
2018-03-02T06:44:26.411Z,10.43
2018-03-02T06:46:54.507Z,10.40
2018-03-02T06:49:23.427Z,9.93
2018-03-02T06:51:51.478Z,10.18
2018-03-02T06:54:19.518Z,9.95
2018-03-02T06:56:47.605Z,9.93
2018-03-02T06:59:17.723Z,10.10
2018-03-02T07:01:45.817Z,9.30
2018-03-02T07:04:13.930Z,9.70
2018-03-02T07:06:41.971Z,9.52
2018-03-02T07:09:10.049Z,10.55
2018-03-02T07:11:38.099Z,9.50
2018-03-02T07:14:06.142Z,9.88
2018-03-02T07:16:35.033Z,11.90
2018-03-02T07:19:03.076Z,10.95
2018-03-02T07:21:31.459Z,10.40
2018-03-02T07:24:00.054Z,9.50
2018-03-02T07:26:28.306Z,10.00
2018-03-02T07:28:57.426Z,9.45
2018-03-02T07:31:25.508Z,9.90
2018-03-02T07:33:53.576Z,10.10
2018-03-02T07:36:22.278Z,9.70
2018-03-02T07:38:50.352Z,9.75
2018-03-02T07:41:18.450Z,9.45
2018-03-02T07:43:46.498Z,9.25
2018-03-02T07:46:14.560Z,9.57
2018-03-02T07:48:42.616Z,10.32
2018-03-02T07:51:10.696Z,10.10
2018-03-02T07:53:38.751Z,9.77
2018-03-02T07:56:06.846Z,9.02
2018-03-02T07:58:34.895Z,9.90
2018-03-02T08:01:06.933Z,9.63
2018-03-02T08:03:34.960Z,9.88
2018-03-02T08:06:03.098Z,10.85
2018-03-02T08:08:31.179Z,9.85
2018-03-02T08:11:00.253Z,10.07
2018-03-02T08:13:28.343Z,9.75
2018-03-02T08:15:56.401Z,11.85
2018-03-02T08:18:24.467Z,10.30
2018-03-02T08:20:52.527Z,16.33
2018-03-02T08:23:20.578Z,15.07
2018-03-02T08:25:48.635Z,13.40
2018-03-02T08:28:16.695Z,13.10
2018-03-02T08:30:44.747Z,11.12
2018-03-02T08:33:12.831Z,13.93
2018-03-02T08:35:40.874Z,13.55
2018-03-02T08:38:08.927Z,14.87
2018-03-02T08:40:36.987Z,16.00
2018-03-02T08:43:05.020Z,14.87
2018-03-02T08:45:33.845Z,12.73
2018-03-02T08:48:01.946Z,18.87
2018-03-02T08:50:30.128Z,19.75
2018-03-02T08:52:59.631Z,15.20
2018-03-02T08:55:27.788Z,15.77
2018-03-02T08:57:55.862Z,14.07
2018-03-02T09:00:23.924Z,13.30
2018-03-02T09:02:51.954Z,12.85
2018-03-02T09:05:20.002Z,13.55
2018-03-02T09:07:48.032Z,12.63
2018-03-02T09:10:16.097Z,12.15
2018-03-02T09:12:44.182Z,13.70
2018-03-02T09:15:13.680Z,12.63
2018-03-02T09:17:41.769Z,11.90
2018-03-02T09:20:09.865Z,12.80
2018-03-02T09:22:37.921Z,11.85
2018-03-02T09:25:05.966Z,11.63
2018-03-02T09:27:34.011Z,12.20
2018-03-02T09:30:02.933Z,11.52
2018-03-02T09:32:30.958Z,12.18
2018-03-02T09:34:59.036Z,11.98
2018-03-02T09:37:27.105Z,12.37
2018-03-02T09:39:55.197Z,12.43
2018-03-02T09:42:23.222Z,13.18
2018-03-02T09:44:51.304Z,11.82
2018-03-02T09:47:19.371Z,12.82
2018-03-02T09:49:47.441Z,13.10
2018-03-02T09:52:15.481Z,12.63
2018-03-02T09:54:44.394Z,12.30
2018-03-02T09:57:12.444Z,13.57
2018-03-02T09:59:40.483Z,12.98
2018-03-02T10:02:08.549Z,13.05
2018-03-02T10:04:36.732Z,12.70
2018-03-02T10:07:04.786Z,12.88
2018-03-02T10:09:32.817Z,16.45
2018-03-02T10:12:00.873Z,14.48
2018-03-02T10:14:28.908Z,13.73
2018-03-02T10:16:56.953Z,13.57
2018-03-02T10:19:25.011Z,13.43
2018-03-02T10:21:53.038Z,12.77
2018-03-02T10:24:21.218Z,13.27
2018-03-02T10:26:49.243Z,13.73
2018-03-02T10:29:17.332Z,13.10
2018-03-02T10:31:45.381Z,13.35
2018-03-02T10:34:13.466Z,13.50
2018-03-02T10:36:41.586Z,13.35
2018-03-02T10:39:09.637Z,13.10
2018-03-02T10:41:39.229Z,13.68
2018-03-02T10:44:07.306Z,14.32
2018-03-02T10:46:35.371Z,13.00
2018-03-02T10:49:03.788Z,12.60
2018-03-02T10:51:32.915Z,13.27
2018-03-02T10:54:01.002Z,17.35
2018-03-02T10:56:29.069Z,14.80
2018-03-02T10:58:57.140Z,19.00
2018-03-02T11:01:26.248Z,17.02
2018-03-02T11:03:59.604Z,17.20
2018-03-02T11:06:27.666Z,15.82
2018-03-02T11:08:55.722Z,16.87
2018-03-02T11:11:23.813Z,17.30
2018-03-02T11:13:51.875Z,16.67
2018-03-02T11:16:19.973Z,19.17
2018-03-02T11:18:48.014Z,22.05
2018-03-02T11:21:16.048Z,23.27
2018-03-02T11:23:44.098Z,24.08
2018-03-02T11:26:12.161Z,19.42
2018-03-02T11:28:40.237Z,18.27
2018-03-02T11:31:08.458Z,15.50
2018-03-02T11:33:36.635Z,14.82
2018-03-02T11:36:04.696Z,15.27
2018-03-02T11:38:32.751Z,13.82
2018-03-02T11:41:00.788Z,14.27
2018-03-02T11:43:28.822Z,14.10
2018-03-02T11:45:56.892Z,15.35
2018-03-02T11:48:24.968Z,15.65
2018-03-02T11:50:53.805Z,15.80
2018-03-02T11:53:21.863Z,14.13
2018-03-02T11:55:49.906Z,13.60
2018-03-02T11:58:17.971Z,16.80
2018-03-02T12:00:46.083Z,24.77
2018-03-02T12:03:14.125Z,20.95
2018-03-02T12:05:42.172Z,17.20
2018-03-02T12:08:10.223Z,15.07
2018-03-02T12:10:38.301Z,14.35
2018-03-02T12:13:06.369Z,14.35
2018-03-02T12:15:34.450Z,14.32
2018-03-02T12:18:02.518Z,14.98
2018-03-02T12:20:30.728Z,13.93
2018-03-02T12:22:58.765Z,13.55
2018-03-02T12:25:26.802Z,13.57
2018-03-02T12:27:54.877Z,14.57
2018-03-02T12:30:22.937Z,13.68
2018-03-02T12:32:51.013Z,14.02
2018-03-02T12:35:19.082Z,13.65
2018-03-02T12:37:47.126Z,13.30
2018-03-02T12:40:15.184Z,13.82
2018-03-02T12:42:44.181Z,12.93
2018-03-02T12:45:12.234Z,13.50
2018-03-02T12:47:40.286Z,13.40
2018-03-02T12:50:08.348Z,13.55
2018-03-02T12:52:37.278Z,13.38
2018-03-02T12:55:05.378Z,13.32
2018-03-02T12:57:33.419Z,13.27
2018-03-02T13:00:01.557Z,12.70
2018-03-02T13:02:29.567Z,12.43
2018-03-02T13:04:57.627Z,12.80
2018-03-02T13:07:25.686Z,12.57
2018-03-02T13:09:53.728Z,13.25
2018-03-02T13:12:21.766Z,12.68
2018-03-02T13:14:49.803Z,12.68
2018-03-02T13:17:17.877Z,12.60
2018-03-02T13:19:45.980Z,12.05
2018-03-02T13:22:14.049Z,12.90
2018-03-02T13:24:42.094Z,12.32
2018-03-02T13:27:10.143Z,12.35
2018-03-02T13:29:38.931Z,11.90
2018-03-02T13:32:06.991Z,13.48
2018-03-02T13:34:35.065Z,12.95
2018-03-02T13:37:03.136Z,11.90
2018-03-02T13:39:31.201Z,12.45
2018-03-02T13:41:59.225Z,12.68
2018-03-02T13:44:27.293Z,13.27
2018-03-02T13:46:55.375Z,12.15
2018-03-02T13:49:23.449Z,12.40
2018-03-02T13:51:51.517Z,12.82
2018-03-02T13:54:19.589Z,12.73
2018-03-02T13:56:47.637Z,12.05
2018-03-02T13:59:15.702Z,12.60
2018-03-02T14:01:43.751Z,11.38
2018-03-02T14:04:12.567Z,12.10
2018-03-02T14:06:40.635Z,12.75
2018-03-02T14:09:08.694Z,12.68
2018-03-02T14:11:36.819Z,12.30
2018-03-02T14:14:04.876Z,16.55
2018-03-02T14:16:32.930Z,15.60
2018-03-02T14:19:00.980Z,13.18
2018-03-02T14:21:29.056Z,13.95
2018-03-02T14:23:57.985Z,14.15
2018-03-02T14:26:26.074Z,19.45
2018-03-02T14:28:54.149Z,16.95
2018-03-02T14:31:22.237Z,14.15
2018-03-02T14:33:50.307Z,13.82
2018-03-02T14:36:18.367Z,14.32
2018-03-02T14:38:46.426Z,15.50
2018-03-02T14:41:14.535Z,16.92
2018-03-02T14:43:42.609Z,19.00
2018-03-02T14:46:10.663Z,20.60
2018-03-02T14:48:38.722Z,22.17
2018-03-02T14:51:06.775Z,23.25
2018-03-02T14:53:34.881Z,25.48
2018-03-02T14:56:02.905Z,27.98
2018-03-02T14:58:32.478Z,29.65
2018-03-02T15:01:00.511Z,31.12
2018-03-02T15:03:28.552Z,34.40
2018-03-02T15:05:56.590Z,31.15
2018-03-02T15:08:24.702Z,38.10
2018-03-02T15:10:53.626Z,42.40
2018-03-02T15:13:21.688Z,43.10
2018-03-02T15:15:49.726Z,46.75
2018-03-02T15:18:17.763Z,48.92
2018-03-02T15:20:45.810Z,51.30
2018-03-02T15:23:13.879Z,55.10
2018-03-02T15:25:42.706Z,55.45
2018-03-02T15:28:11.585Z,60.15
2018-03-02T15:30:39.584Z,63.90
2018-03-02T15:33:07.632Z,65.60
2018-03-02T15:35:35.704Z,65.65
2018-03-02T15:38:03.742Z,69.45
2018-03-02T15:40:31.817Z,75.70
2018-03-02T15:42:59.867Z,77.78
2018-03-02T15:45:27.900Z,77.97
2018-03-02T15:47:56.748Z,79.45
2018-03-02T15:50:24.811Z,82.22
2018-03-02T15:52:52.898Z,83.70
2018-03-02T15:55:20.977Z,89.10
2018-03-02T15:57:49.064Z,92.30
2018-03-02T16:00:17.159Z,94.47
2018-03-02T16:02:46.128Z,98.15
2018-03-02T16:05:14.218Z,100.38
2018-03-02T16:07:42.288Z,103.50
2018-03-02T16:10:10.375Z,102.55
2018-03-02T16:12:38.477Z,98.90
2018-03-02T16:15:06.534Z,99.10
2018-03-02T16:17:34.620Z,98.18
2018-03-02T16:20:02.688Z,95.80
2018-03-02T16:22:30.743Z,92.32
2018-03-02T16:24:58.837Z,96.37
2018-03-02T16:27:26.896Z,93.20
2018-03-02T16:29:54.974Z,87.22
2018-03-02T16:32:23.051Z,91.60
2018-03-02T16:34:51.123Z,90.03
2018-03-02T16:37:19.200Z,92.40
2018-03-02T16:39:47.265Z,95.57
2018-03-02T16:42:15.333Z,99.32
2018-03-02T16:44:43.398Z,101.15
2018-03-02T16:47:11.445Z,93.05
2018-03-02T16:49:39.510Z,96.47
2018-03-02T16:52:07.561Z,92.70
2018-03-02T16:54:35.610Z,86.18
2018-03-02T16:57:03.717Z,98.80
2018-03-02T16:59:31.802Z,89.37
2018-03-02T17:01:59.853Z,88.62
2018-03-02T17:04:27.902Z,85.30
2018-03-02T17:06:55.957Z,94.70
2018-03-02T17:09:23.998Z,89.10
2018-03-02T17:11:52.802Z,89.43
2018-03-02T17:14:20.877Z,97.90
2018-03-02T17:16:48.969Z,98.62
2018-03-02T17:19:17.050Z,96.80
2018-03-02T17:21:45.279Z,86.95
2018-03-02T17:24:13.333Z,83.47
2018-03-02T17:26:41.404Z,86.95
2018-03-02T17:29:09.480Z,86.72
2018-03-02T17:31:37.573Z,92.85
2018-03-02T17:34:05.600Z,96.43
2018-03-02T17:36:33.650Z,72.60
2018-03-02T17:39:01.692Z,57.20
2018-03-02T17:41:30.546Z,81.03
2018-03-02T17:43:58.600Z,92.57
2018-03-02T17:46:26.640Z,109.00
2018-03-02T17:48:54.683Z,97.50
2018-03-02T17:51:22.753Z,107.68
2018-03-02T17:53:50.824Z,106.80
2018-03-02T17:56:18.885Z,114.70
2018-03-02T17:58:46.928Z,113.12
2018-03-02T18:01:14.994Z,117.57
2018-03-02T18:03:43.101Z,119.53
2018-03-02T18:06:11.165Z,124.30
2018-03-02T18:08:39.336Z,124.68
2018-03-02T18:11:07.426Z,138.07
2018-03-02T18:13:35.484Z,134.82
2018-03-02T18:16:03.549Z,133.40
2018-03-02T18:18:31.624Z,131.80
2018-03-02T18:20:59.696Z,125.55
2018-03-02T18:23:27.748Z,122.20
2018-03-02T18:25:55.817Z,128.18
2018-03-02T18:28:23.885Z,137.88
2018-03-02T18:30:51.957Z,138.65
2018-03-02T18:33:20.048Z,139.55
2018-03-02T18:35:48.109Z,140.40
2018-03-02T18:38:16.180Z,141.88
2018-03-02T18:40:44.237Z,146.45
2018-03-02T18:43:12.324Z,146.07
2018-03-02T18:45:40.419Z,146.82
2018-03-02T18:48:08.496Z,146.52
2018-03-02T18:50:36.585Z,148.77
2018-03-02T18:53:04.647Z,149.30
2018-03-02T18:55:32.707Z,148.05
2018-03-02T18:58:00.800Z,153.07
2018-03-02T19:00:28.850Z,152.18
2018-03-02T19:02:56.942Z,153.48
2018-03-02T19:05:25.970Z,140.90
2018-03-02T19:07:54.027Z,146.65
2018-03-02T19:10:22.075Z,133.00
2018-03-02T19:12:50.128Z,127.53
2018-03-02T19:15:18.201Z,126.40
2018-03-02T19:17:46.291Z,123.03
2018-03-02T19:20:14.375Z,112.55
2018-03-02T19:22:42.486Z,112.40
2018-03-02T19:25:10.569Z,106.30
2018-03-02T19:27:38.692Z,97.72
2018-03-02T19:30:06.746Z,97.97
2018-03-02T19:32:34.820Z,91.75
2018-03-02T19:35:02.887Z,88.57
2018-03-02T19:37:30.952Z,84.18
2018-03-02T19:39:59.033Z,70.10
2018-03-02T19:42:27.102Z,72.43
2018-03-02T19:44:55.144Z,75.57
2018-03-02T19:47:23.237Z,71.62
2018-03-02T19:49:51.292Z,69.22
2018-03-02T19:52:19.356Z,67.50
2018-03-02T19:54:47.412Z,64.82
2018-03-02T19:57:15.461Z,61.17
2018-03-02T19:59:43.529Z,58.83
2018-03-02T20:02:11.584Z,57.83
2018-03-02T20:04:39.662Z,57.00
2018-03-02T20:07:07.737Z,54.53
2018-03-02T20:09:35.818Z,54.28
2018-03-02T20:12:03.891Z,51.22
2018-03-02T20:14:31.936Z,50.03
2018-03-02T20:17:00.027Z,49.05
2018-03-02T20:19:28.079Z,47.13
2018-03-02T20:21:56.155Z,46.90
2018-03-02T20:24:24.236Z,45.63
2018-03-02T20:26:52.340Z,44.45
2018-03-02T20:29:20.384Z,41.67
2018-03-02T20:31:48.440Z,41.25
2018-03-02T20:34:16.453Z,39.70
2018-03-02T20:36:45.296Z,38.60
2018-03-02T20:39:13.332Z,37.20
2018-03-02T20:41:41.360Z,36.95
2018-03-02T20:44:09.471Z,35.60
2018-03-02T20:46:37.533Z,34.38
2018-03-02T20:49:05.623Z,36.58
2018-03-02T20:51:33.695Z,34.30
2018-03-02T20:54:01.743Z,34.05
2018-03-02T20:56:29.821Z,33.28
2018-03-02T20:58:57.872Z,34.03
2018-03-02T21:01:25.998Z,31.45
2018-03-02T21:03:54.082Z,29.75
2018-03-02T21:06:22.177Z,30.92
2018-03-02T21:08:50.315Z,30.15
2018-03-02T21:11:18.384Z,29.05
2018-03-02T21:13:47.275Z,29.63
2018-03-02T21:16:16.119Z,28.35
2018-03-02T21:18:44.168Z,27.80
2018-03-02T21:21:12.221Z,28.83
2018-03-02T21:23:40.278Z,27.87
2018-03-02T21:26:08.344Z,29.37
2018-03-02T21:28:36.425Z,27.80
2018-03-02T21:31:04.499Z,27.62
2018-03-02T21:33:32.710Z,27.98
2018-03-02T21:36:00.642Z,28.17
2018-03-02T21:38:28.848Z,29.35
2018-03-02T21:40:56.930Z,30.80
2018-03-02T21:43:24.958Z,30.50
2018-03-02T21:45:53.756Z,28.85
2018-03-02T21:48:21.792Z,29.35
2018-03-02T21:50:49.828Z,29.12
2018-03-02T21:53:17.880Z,28.75
2018-03-02T21:55:45.908Z,31.05
2018-03-02T21:58:13.944Z,29.10
2018-03-02T22:00:42.008Z,27.67
2018-03-02T22:03:10.084Z,27.20
2018-03-02T22:05:38.125Z,27.17
2018-03-02T22:08:06.156Z,28.23
2018-03-02T22:10:34.220Z,26.98
2018-03-02T22:13:02.260Z,29.00
2018-03-02T22:15:30.293Z,25.17
2018-03-02T22:17:58.366Z,26.73
2018-03-02T22:20:27.196Z,26.42
2018-03-02T22:22:55.229Z,26.12
2018-03-02T22:25:23.276Z,26.20
2018-03-02T22:27:51.287Z,27.65
2018-03-02T22:30:19.392Z,26.15
2018-03-02T22:32:47.446Z,27.33
2018-03-02T22:35:15.475Z,26.08
2018-03-02T22:37:43.527Z,26.08
2018-03-02T22:40:11.557Z,26.23
2018-03-02T22:42:39.636Z,25.73
2018-03-02T22:45:07.675Z,26.60
2018-03-02T22:47:35.713Z,26.23
2018-03-02T22:50:03.765Z,25.65
2018-03-02T22:52:31.803Z,26.33
2018-03-02T22:55:00.642Z,25.67
2018-03-02T22:57:28.683Z,25.90
2018-03-02T22:59:56.729Z,26.80
2018-03-02T23:02:24.745Z,24.15
2018-03-02T23:04:52.772Z,24.80
2018-03-02T23:07:21.617Z,24.95
2018-03-02T23:09:49.650Z,24.73
2018-03-02T23:12:17.688Z,24.60
2018-03-02T23:14:45.758Z,25.17
2018-03-02T23:17:13.823Z,23.90
2018-03-02T23:19:41.902Z,24.52
2018-03-02T23:22:09.959Z,24.67
2018-03-02T23:24:38.014Z,24.42
2018-03-02T23:27:06.046Z,25.20
2018-03-02T23:29:34.086Z,25.62
2018-03-02T23:32:02.144Z,23.87
2018-03-02T23:34:30.170Z,24.27
2018-03-02T23:36:58.200Z,24.15
2018-03-02T23:39:26.268Z,24.48
2018-03-02T23:41:54.292Z,23.33
2018-03-02T23:44:22.385Z,23.42
2018-03-02T23:46:50.418Z,24.02
2018-03-02T23:49:19.221Z,23.35
2018-03-02T23:51:47.259Z,22.55
2018-03-02T23:54:15.397Z,23.75
2018-03-02T23:56:43.498Z,23.38
2018-03-02T23:59:11.510Z,23.65
